Time;durP1;ratioP1;P1;durP2;ratioP2;P2;SDS_P1;SDS_P2;PMS_P1;PMS_P2;Temp;Humidity;BMP_temperature;BMP_pressure;BME280_temperature;BME280_humidity;BME280_pressure;Samples;Min_cycle;Max_cycle;Signal;HPM_P1;HPM_P2
2021/08/27 00:01:42;;;;;;;25.73;13.02;;;;;;;20.07;74.08;94487.78;5013532;28;20030;-78
2021/08/27 00:04:07;;;;;;;20.75;14.93;;;;;;;20.08;73.65;94496.47;5013687;28;20461;-78
2021/08/27 00:06:33;;;;;;;28.27;15.52;;;;;;;20.04;73.73;94498.94;5011568;28;20494;-78
2021/08/27 00:08:58;;;;;;;25.63;14.85;;;;;;;20.04;73.81;94508.72;5014356;28;20030;-78
2021/08/27 00:11:24;;;;;;;22.58;13.77;;;;;;;20.07;74.04;94505.47;5013831;28;20045;-79
2021/08/27 00:13:50;;;;;;;16.73;13.38;;;;;;;20.09;73.90;94501.44;4996058;28;20501;-78
2021/08/27 00:16:15;;;;;;;25.27;14.75;;;;;;;20.09;73.39;94495.38;4996495;28;20042;-78
2021/08/27 00:18:41;;;;;;;21.38;14.68;;;;;;;20.06;73.60;94496.00;4996360;28;20037;-78
2021/08/27 00:21:06;;;;;;;18.63;13.65;;;;;;;20.03;73.84;94507.16;5013025;28;20029;-79
2021/08/27 00:23:32;;;;;;;24.67;13.35;;;;;;;20.06;73.69;94501.28;5045412;23;20042;-78
2021/08/27 00:25:57;;;;;;;20.17;13.15;;;;;;;20.07;73.81;94500.97;5110970;23;20039;-78
2021/08/27 00:28:23;;;;;;;16.05;13.25;;;;;;;20.11;73.30;94511.72;5023997;28;20034;-78
2021/08/27 00:30:48;;;;;;;20.95;12.80;;;;;;;20.14;72.97;94507.69;5015840;28;20030;-78
2021/08/27 00:33:13;;;;;;;23.45;12.65;;;;;;;20.12;72.88;94505.34;5011985;28;20142;-78
2021/08/27 00:35:39;;;;;;;19.75;13.05;;;;;;;20.10;73.00;94507.50;5012636;28;20041;-78
2021/08/27 00:38:05;;;;;;;20.20;11.50;;;;;;;20.11;72.91;94503.78;5014062;28;20029;-78
2021/08/27 00:40:31;;;;;;;17.83;12.23;;;;;;;20.11;72.81;94517.00;4979743;28;20053;-78
2021/08/27 00:42:56;;;;;;;20.08;12.98;;;;;;;20.11;73.16;94503.78;5013595;28;20026;-79
2021/08/27 00:45:22;;;;;;;19.02;13.40;;;;;;;20.09;73.29;94498.81;5012894;28;20026;-78
2021/08/27 00:47:47;;;;;;;19.23;13.43;;;;;;;20.13;73.85;94491.06;5012025;28;20034;-78
2021/08/27 00:50:12;;;;;;;21.75;13.57;;;;;;;20.13;73.30;94496.34;5012345;28;20025;-78
2021/08/27 00:52:39;;;;;;;17.40;12.73;;;;;;;20.12;73.91;94507.22;5012991;28;20062;-78
2021/08/27 00:55:05;;;;;;;24.52;13.93;;;;;;;20.13;73.72;94508.78;5012838;28;20098;-78
2021/08/27 00:57:30;;;;;;;24.42;14.02;;;;;;;20.13;73.98;94512.19;5011875;28;20037;-78
2021/08/27 00:59:56;;;;;;;18.85;12.65;;;;;;;20.12;73.91;94510.63;5012769;28;20049;-78
2021/08/27 01:02:27;;;;;;;24.10;13.15;;;;;;;20.12;74.03;94510.63;5012285;28;20481;-78
2021/08/27 01:04:54;;;;;;;18.33;13.73;;;;;;;20.12;73.77;94515.91;4978794;28;20034;-78
2021/08/27 01:07:29;;;;;;;16.33;12.85;;;;;;;20.12;73.49;94518.53;4994836;28;20588;-78
2021/08/27 01:09:57;;;;;;;25.75;12.68;;;;;;;20.13;73.77;94514.81;4978284;28;20061;-78
2021/08/27 01:12:40;;;;;;;16.83;12.48;;;;;;;20.14;73.97;94513.75;5012029;28;20042;-78
2021/08/27 01:15:29;;;;;;;19.35;11.70;;;;;;;20.14;73.50;94502.41;4994505;28;20445;-78
2021/08/27 01:17:59;;;;;;;14.75;11.90;;;;;;;20.13;73.25;94501.63;5010848;28;20041;-78
2021/08/27 01:20:49;;;;;;;27.25;12.50;;;;;;;20.04;73.53;94491.00;4994185;28;20058;-78
2021/08/27 01:23:46;;;;;;;20.75;12.63;;;;;;;19.98;74.05;94496.69;5012327;28;20041;-78
2021/08/27 01:26:11;;;;;;;17.92;11.90;;;;;;;19.95;74.04;94499.94;5012656;28;20116;-79
2021/08/27 01:28:43;;;;;;;15.27;10.60;;;;;;;19.91;74.01;94501.59;4998610;28;20033;-79
2021/08/27 01:31:28;;;;;;;13.02;11.48;;;;;;;19.91;73.92;94506.88;4982526;28;20038;-78
2021/08/27 01:33:58;;;;;;;18.42;12.00;;;;;;;19.87;74.52;94513.84;5014792;28;20038;-78
2021/08/27 01:36:27;;;;;;;26.65;14.73;;;;;;;19.90;74.58;94518.53;5024919;28;20042;-77
2021/08/27 01:38:52;;;;;;;17.58;12.40;;;;;;;19.94;74.43;94522.13;5035527;28;20048;-77
2021/08/27 01:41:18;;;;;;;15.57;11.98;;;;;;;19.93;74.36;94512.66;5035906;28;20026;-78
2021/08/27 01:43:43;;;;;;;17.02;11.60;;;;;;;19.95;74.22;94513.91;5004803;28;20038;-78
2021/08/27 01:46:09;;;;;;;19.40;11.95;;;;;;;19.98;74.39;94515.16;4998015;28;20038;-78
2021/08/27 01:48:34;;;;;;;18.85;11.75;;;;;;;19.99;74.04;94506.16;5015193;28;20069;-78
2021/08/27 01:51:00;;;;;;;14.38;11.65;;;;;;;19.99;73.63;94511.44;4995212;28;20030;-78
2021/08/27 01:53:28;;;;;;;16.58;11.38;;;;;;;20.02;74.17;94514.28;5014675;28;20038;-78
2021/08/27 01:56:01;;;;;;;18.85;11.57;;;;;;;20.04;74.42;94514.00;5015081;28;20515;-78
2021/08/27 01:58:26;;;;;;;26.17;11.70;;;;;;;20.04;74.23;94500.78;4996888;28;20072;-78
2021/08/27 02:00:53;;;;;;;15.57;10.93;;;;;;;19.96;74.02;94498.84;4997098;28;20770;-78
2021/08/27 02:03:19;;;;;;;17.23;10.18;;;;;;;19.97;74.08;94497.78;4996694;28;20116;-78
2021/08/27 02:05:44;;;;;;;19.88;9.82;;;;;;;19.89;74.15;94493.22;4997579;28;20034;-78
2021/08/27 02:08:10;;;;;;;18.13;10.25;;;;;;;19.90;74.02;94492.91;4997854;28;20045;-78
2021/08/27 02:10:35;;;;;;;14.60;8.95;;;;;;;19.89;73.76;94495.84;4997957;28;20038;-78
2021/08/27 02:13:04;;;;;;;12.57;9.25;;;;;;;19.84;74.08;94499.34;5015173;28;20441;-78
2021/08/27 02:15:29;;;;;;;11.25;8.32;;;;;;;19.87;74.13;94498.00;5014435;28;20576;-78
2021/08/27 02:17:55;;;;;;;17.77;8.43;;;;;;;19.91;74.35;94509.53;5012324;28;20040;-78
2021/08/27 02:20:20;;;;;;;14.32;11.60;;;;;;;19.94;74.62;94508.94;5014624;28;20331;-78
2021/08/27 02:22:51;;;;;;;17.42;10.52;;;;;;;19.95;74.72;94511.25;5012118;28;20045;-77
2021/08/27 02:25:25;;;;;;;15.35;9.40;;;;;;;19.95;74.77;94505.22;5010968;28;20034;-77
2021/08/27 02:27:50;;;;;;;16.63;9.73;;;;;;;19.89;74.47;94501.13;4995114;28;20037;-78
2021/08/27 02:30:16;;;;;;;11.95;9.30;;;;;;;19.90;74.42;94500.06;5011432;28;20038;-77
2021/08/27 02:32:42;;;;;;;16.15;8.85;;;;;;;19.93;74.26;94496.81;5010590;28;20041;-77
2021/08/27 02:35:08;;;;;;;13.57;8.63;;;;;;;19.96;74.72;94490.94;5012641;28;20034;-77
2021/08/27 02:37:35;;;;;;;17.33;11.00;;;;;;;19.91;74.05;94488.41;4994633;28;20092;-78
2021/08/27 02:40:02;;;;;;;13.80;8.93;;;;;;;19.84;74.43;94493.31;5011179;28;20520;-78
2021/08/27 02:42:28;;;;;;;16.05;8.40;;;;;;;19.70;74.29;94499.41;4994661;28;20030;-77
2021/08/27 02:44:56;;;;;;;14.45;7.93;;;;;;;19.68;74.59;94495.50;5012132;28;20037;-77
2021/08/27 02:47:22;;;;;;;14.52;9.00;;;;;;;19.72;74.34;94499.13;5012632;28;20033;-77
2021/08/27 02:49:47;;;;;;;11.88;8.63;;;;;;;19.79;74.54;94512.66;5011013;28;20038;-77
2021/08/27 02:52:37;;;;;;;10.38;8.05;;;;;;;19.83;73.88;94523.41;5008178;28;20034;-77
2021/08/27 02:55:28;;;;;;;10.88;8.80;;;;;;;19.85;73.96;94519.41;5012350;28;20062;-77
2021/08/27 02:58:07;;;;;;;14.23;8.50;;;;;;;19.88;74.08;94515.41;5012212;28;20060;-77
2021/08/27 03:00:39;;;;;;;11.02;8.60;;;;;;;19.89;73.92;94512.47;5012195;28;20092;-77
2021/08/27 03:03:05;;;;;;;;;;;;;;;19.86;73.44;94501.72;4995003;28;20120;-78
2021/08/27 03:05:40;;;;;;;17.83;7.75;;;;;;;19.75;73.34;94507.22;5012241;28;19960;-78
2021/08/27 03:08:06;;;;;;;11.20;7.63;;;;;;;19.61;73.79;94505.66;4978239;28;20052;-77
2021/08/27 03:10:35;;;;;;;14.50;7.55;;;;;;;19.61;73.66;94495.91;5012118;28;20026;-78
2021/08/27 03:13:04;;;;;;;11.35;6.55;;;;;;;19.54;73.80;94495.53;5011243;28;20038;-78
2021/08/27 03:15:38;;;;;;;8.38;6.85;;;;;;;19.48;74.08;94491.38;5010780;28;20338;-77
2021/08/27 03:18:07;;;;;;;6.65;5.72;;;;;;;19.34;74.54;94506.44;4993028;28;20041;-78
2021/08/27 03:20:45;;;;;;;12.85;7.68;;;;;;;19.25;75.16;94492.41;5011298;28;20037;-77
2021/08/27 03:23:11;;;;;;;8.43;7.30;;;;;;;19.27;75.25;94487.59;5011855;28;20034;-77
2021/08/27 03:25:48;;;;;;;10.48;6.28;;;;;;;19.28;75.06;94486.53;5011691;28;20057;-77
2021/08/27 03:28:24;;;;;;;9.98;6.47;;;;;;;19.34;75.14;94485.34;4994393;28;20034;-78
2021/08/27 03:30:50;;;;;;;9.27;6.68;;;;;;;19.40;74.95;94498.16;5011861;28;20038;-78
2021/08/27 03:33:16;;;;;;;12.40;6.55;;;;;;;19.43;74.78;94496.78;5008319;28;20045;-77
2021/08/27 03:35:41;;;;;;;11.18;6.88;;;;;;;19.47;75.23;94505.66;4993987;28;20034;-79
2021/08/27 03:38:09;;;;;;;9.55;7.55;;;;;;;19.51;75.29;94506.63;4997738;28;20066;-78
2021/08/27 03:40:34;;;;;;;10.32;7.05;;;;;;;19.57;75.21;94513.41;5002222;28;20418;-79
2021/08/27 03:43:18;;;;;;;9.50;6.78;;;;;;;19.61;74.70;94511.72;5021887;23;20053;-78
2021/08/27 03:45:43;;;;;;;10.93;6.88;;;;;;;19.64;74.69;94521.69;5020520;28;20021;-78
2021/08/27 03:48:09;;;;;;;9.93;6.90;;;;;;;19.66;75.13;94508.19;5050016;28;20053;-79
2021/08/27 03:50:35;;;;;;;13.80;7.50;;;;;;;19.72;75.11;94517.59;5013758;28;20041;-78
2021/08/27 03:53:00;;;;;;;10.55;7.22;;;;;;;19.74;74.54;94508.28;5048452;28;20041;-78
2021/08/27 03:55:25;;;;;;;8.30;7.20;;;;;;;19.74;74.25;94507.50;5033438;28;20033;-78
2021/08/27 03:58:05;;;;;;;11.63;7.90;;;;;;;19.72;74.26;94502.53;5033969;28;20037;-79
2021/08/27 04:00:30;;;;;;;12.65;8.05;;;;;;;19.69;74.31;94500.50;5047269;28;20056;-78
2021/08/27 04:02:55;;;;;;;9.88;8.48;;;;;;;19.70;73.76;94507.31;5033826;28;20489;-78
2021/08/27 04:05:21;;;;;;;12.05;7.90;;;;;;;19.73;74.36;94512.00;5048855;28;20032;-78
2021/08/27 04:07:47;;;;;;;11.07;7.47;;;;;;;19.78;74.19;94517.16;5034512;28;20045;-78
2021/08/27 04:10:14;;;;;;;11.23;8.13;;;;;;;19.86;74.83;94514.91;5031999;28;20038;-79
2021/08/27 04:12:40;;;;;;;13.73;8.95;;;;;;;19.86;75.16;94507.00;5034501;28;20087;-78
2021/08/27 04:15:10;;;;;;;13.77;7.80;;;;;;;19.88;74.24;94515.41;5033899;28;20037;-79
2021/08/27 04:17:36;;;;;;;12.52;8.30;;;;;;;19.90;74.32;94513.25;5031911;28;20056;-78
2021/08/27 04:20:03;;;;;;;12.32;8.75;;;;;;;19.92;74.36;94516.38;5033473;28;20038;-78
2021/08/27 04:22:31;;;;;;;18.10;8.48;;;;;;;19.96;74.27;94514.69;5033557;28;20033;-78
2021/08/27 04:24:57;;;;;;;15.20;9.40;;;;;;;20.01;73.96;94519.84;5033128;28;20029;-78
2021/08/27 04:27:22;;;;;;;14.43;10.27;;;;;;;19.97;73.75;94524.94;5033085;28;20029;-79
2021/08/27 04:29:48;;;;;;;13.55;10.23;;;;;;;19.90;73.60;94524.59;5032525;28;20041;-78
2021/08/27 04:32:13;;;;;;;16.38;10.88;;;;;;;19.89;73.53;94530.16;5032018;28;20069;-78
2021/08/27 04:34:39;;;;;;;16.67;11.38;;;;;;;19.85;73.93;94521.25;5031961;28;20026;-79
2021/08/27 04:37:04;;;;;;;17.58;11.32;;;;;;;19.87;74.27;94529.69;5030480;28;20075;-77
2021/08/27 04:39:30;;;;;;;12.18;9.50;;;;;;;19.91;73.69;94528.78;5031044;28;20080;-77
2021/08/27 04:41:55;;;;;;;13.40;10.38;;;;;;;19.96;73.79;94523.38;5031624;28;20220;-80
2021/08/27 04:44:24;;;;;;;13.68;9.70;;;;;;;20.01;73.40;94527.75;5036747;28;20037;-79
2021/08/27 04:46:49;;;;;;;14.80;10.48;;;;;;;20.06;73.34;94525.03;5033464;28;20537;-79
2021/08/27 04:49:15;;;;;;;17.25;9.65;;;;;;;20.06;73.29;94528.44;5031156;28;20068;-78
2021/08/27 04:51:40;;;;;;;16.30;10.23;;;;;;;20.05;72.46;94523.47;5029266;28;20416;-78
2021/08/27 04:54:12;;;;;;;14.90;9.93;;;;;;;20.07;72.76;94534.50;5028587;28;20651;-77
2021/08/27 04:56:37;;;;;;;20.00;10.73;;;;;;;20.07;72.87;94523.94;5030961;28;20042;-79
2021/08/27 04:59:03;;;;;;;13.55;10.50;;;;;;;20.06;72.76;94530.31;5029371;28;20033;-77
2021/08/27 05:01:28;;;;;;;12.80;9.55;;;;;;;20.08;72.66;94538.72;5046850;28;20555;-79
2021/08/27 05:03:57;;;;;;;11.70;9.95;;;;;;;20.12;72.53;94534.38;5046637;28;20048;-78
2021/08/27 05:06:22;;;;;;;15.57;10.50;;;;;;;20.17;73.25;94528.97;5030818;28;20112;-78
2021/08/27 05:08:48;;;;;;;12.57;9.35;;;;;;;20.15;72.59;94536.44;5031491;28;20039;-80
2021/08/27 05:11:13;;;;;;;12.70;10.27;;;;;;;20.20;72.39;94533.69;5015181;28;20030;-79
2021/08/27 05:13:38;;;;;;;11.27;9.70;;;;;;;20.24;72.72;94534.66;5028317;23;20132;-78
2021/08/27 05:16:07;;;;;;;12.23;10.02;;;;;;;20.30;73.02;94533.44;4981728;28;20033;-79
2021/08/27 05:18:32;;;;;;;14.40;11.00;;;;;;;20.44;73.40;94543.22;5013792;28;20038;-79
2021/08/27 05:20:58;;;;;;;12.88;10.00;;;;;;;20.59;73.47;94530.41;4996022;28;20038;-79
2021/08/27 05:23:26;;;;;;;18.23;10.48;;;;;;;20.74;72.99;94531.91;5014083;28;20626;-79
2021/08/27 05:25:58;;;;;;;14.20;10.07;;;;;;;20.79;72.76;94534.41;5014052;28;20034;-79
2021/08/27 05:28:24;;;;;;;22.70;10.07;;;;;;;20.92;71.39;94538.84;4980550;28;20026;-79
2021/08/27 05:30:50;;;;;;;12.07;9.77;;;;;;;20.98;71.08;94532.34;5014033;28;20117;-79
2021/08/27 05:33:15;;;;;;;19.70;10.45;;;;;;;21.04;71.33;94538.31;4996669;28;20061;-79
2021/08/27 05:35:41;;;;;;;15.85;10.02;;;;;;;21.08;70.96;94541.88;4996352;28;20030;-79
2021/08/27 05:38:06;;;;;;;13.60;10.15;;;;;;;21.14;71.05;94545.94;4963806;28;20041;-79
2021/08/27 05:40:31;;;;;;;11.85;10.07;;;;;;;21.20;70.60;94544.75;4995312;28;20514;-79
2021/08/27 05:42:57;;;;;;;13.15;10.65;;;;;;;21.22;70.67;94537.28;5016103;28;20041;-78
2021/08/27 05:45:22;;;;;;;17.67;10.88;;;;;;;21.27;69.90;94552.25;5016154;28;20030;-79
2021/08/27 05:47:57;;;;;;;17.80;10.85;;;;;;;21.24;70.34;94555.50;5050191;23;20040;-79
2021/08/27 05:50:22;;;;;;;11.90;10.13;;;;;;;21.19;70.44;94556.41;5044290;28;20118;-78
2021/08/27 05:52:51;;;;;;;15.23;10.27;;;;;;;21.19;70.62;94555.63;5049697;28;20035;-78
2021/08/27 05:55:17;;;;;;;14.57;10.98;;;;;;;21.11;70.20;94556.34;5038093;28;20099;-79
2021/08/27 05:57:42;;;;;;;14.90;11.40;;;;;;;21.05;70.22;94549.66;5028628;28;20075;-79
2021/08/27 06:00:11;;;;;;;16.63;11.00;;;;;;;21.02;70.29;94558.19;5033403;28;20485;-79
2021/08/27 06:02:36;;;;;;;19.25;11.57;;;;;;;21.03;71.16;94559.75;5032974;28;20033;-79
2021/08/27 06:05:02;;;;;;;16.02;11.20;;;;;;;21.05;70.36;94554.94;5032668;28;20548;-79
2021/08/27 06:07:33;;;;;;;18.65;11.40;;;;;;;21.10;70.39;94557.44;5047517;28;20529;-78
2021/08/27 06:09:59;;;;;;;15.30;11.00;;;;;;;21.15;70.23;94559.94;5033452;28;20105;-79
2021/08/27 06:12:24;;;;;;;16.77;12.02;;;;;;;21.22;70.31;94560.31;5034486;28;20107;-79
2021/08/27 06:14:53;;;;;;;14.48;11.27;;;;;;;21.32;70.28;94560.09;5051927;28;20021;-79
2021/08/27 06:17:18;;;;;;;22.42;12.63;;;;;;;21.41;69.94;94560.09;5036483;28;20108;-79
2021/08/27 06:19:44;;;;;;;14.85;11.93;;;;;;;21.48;69.29;94555.94;5035555;28;20029;-79
2021/08/27 06:22:09;;;;;;;26.17;12.02;;;;;;;21.61;68.57;94558.75;5036071;28;20033;-79
2021/08/27 06:24:35;;;;;;;14.38;12.38;;;;;;;21.75;68.61;94559.44;5032812;28;20037;-79
2021/08/27 06:27:03;;;;;;;17.25;13.50;;;;;;;21.79;68.51;94561.16;5037255;28;20021;-79
2021/08/27 06:29:29;;;;;;;27.25;15.85;;;;;;;21.83;68.66;94550.75;5036214;28;20036;-79
2021/08/27 06:31:55;;;;;;;23.55;16.88;;;;;;;21.84;68.49;94552.31;5035911;28;20083;-79
2021/08/27 06:34:20;;;;;;;25.33;15.35;;;;;;;21.83;68.45;94551.53;5033585;28;20033;-79
2021/08/27 06:36:46;;;;;;;18.38;14.80;;;;;;;21.87;68.53;94556.97;5036033;28;20300;-79
2021/08/27 06:39:12;;;;;;;21.63;15.80;;;;;;;21.89;68.12;94544.22;5035069;28;20037;-79
2021/08/27 06:41:37;;;;;;;24.25;16.38;;;;;;;21.89;68.49;94544.22;5037303;28;20036;-79
2021/08/27 06:44:03;;;;;;;34.85;16.92;;;;;;;21.96;68.26;94552.47;5036895;28;20029;-79
2021/08/27 06:46:28;;;;;;;22.38;15.95;;;;;;;22.04;67.90;94549.06;5041000;23;20052;-79
2021/08/27 06:48:54;;;;;;;21.35;14.95;;;;;;;22.11;67.99;94551.25;5016817;28;20544;-79
2021/08/27 06:51:19;;;;;;;21.33;15.70;;;;;;;22.17;67.46;94556.13;5012459;28;20034;-79
2021/08/27 06:56:17;;;;;;;19.20;16.20;;;;;;;22.17;67.67;94569.34;5051806;23;20046;-79
2021/08/27 06:58:42;;;;;;;20.48;14.77;;;;;;;22.19;65.66;94563.75;5041103;23;20038;-79
2021/08/27 07:01:07;;;;;;;22.55;14.93;;;;;;;22.17;65.81;94566.72;5017192;28;20119;-79
2021/08/27 07:03:33;;;;;;;20.55;14.38;;;;;;;22.17;65.39;94566.72;5016891;28;20034;-79
2021/08/27 07:05:58;;;;;;;17.75;14.18;;;;;;;22.33;64.62;94569.69;5017131;28;20456;-79
2021/08/27 07:08:24;;;;;;;15.70;13.57;;;;;;;22.37;64.76;94565.31;4999190;28;20117;-79
2021/08/27 07:13:17;;;;;;;14.57;12.75;;;;;;;22.52;64.02;94577.31;4995106;28;20054;-78
2021/08/27 07:15:51;;;;;;;15.40;13.82;;;;;;;22.85;63.67;94572.31;4996874;28;20034;-78
2021/08/27 07:18:17;;;;;;;17.50;13.68;;;;;;;23.39;62.29;94582.47;4997502;28;20057;-78
2021/08/27 07:20:42;;;;;;;15.65;12.93;;;;;;;23.74;60.26;94573.28;4980309;28;20478;-79
2021/08/27 07:23:10;;;;;;;16.08;12.98;;;;;;;23.91;59.45;94578.50;4995378;28;20034;-78
2021/08/27 07:25:35;;;;;;;17.30;12.98;;;;;;;24.02;59.29;94583.47;4995609;28;20109;-78
2021/08/27 07:28:00;;;;;;;17.67;12.60;;;;;;;24.33;58.91;94583.91;4997393;28;20030;-79
2021/08/27 07:30:29;;;;;;;15.70;12.18;;;;;;;24.67;57.90;94582.84;4997383;28;20034;-79
2021/08/27 07:32:54;;;;;;;20.70;12.27;;;;;;;25.01;57.38;94584.44;4995922;28;20045;-79
2021/08/27 07:35:20;;;;;;;13.93;12.27;;;;;;;25.27;55.09;94594.06;4997029;28;20173;-78
2021/08/27 07:37:45;;;;;;;21.88;14.00;;;;;;;25.36;54.44;94589.41;4998693;28;20084;-79
2021/08/27 07:40:13;;;;;;;17.60;12.82;;;;;;;25.42;53.89;94596.09;4996998;28;20030;-78
2021/08/27 07:42:39;;;;;;;23.88;13.98;;;;;;;25.50;53.91;94597.88;4997476;28;20034;-79
2021/08/27 07:45:05;;;;;;;21.00;13.05;;;;;;;25.65;53.93;94589.22;4980558;28;20037;-78
2021/08/27 07:47:30;;;;;;;19.90;12.85;;;;;;;25.79;52.69;94585.50;4997151;28;20101;-79
2021/08/27 07:49:59;;;;;;;20.17;13.20;;;;;;;26.10;52.44;94587.59;4996608;28;20470;-79
2021/08/27 07:52:24;;;;;;;17.85;12.35;;;;;;;26.48;51.71;94581.88;4997835;28;20038;-78
2021/08/27 07:54:52;;;;;;;15.73;13.15;;;;;;;26.60;50.31;94581.84;5013684;23;20094;-78
2021/08/27 07:57:24;;;;;;;20.70;12.60;;;;;;;26.82;49.58;94586.63;5026636;23;20046;-79
2021/08/27 07:59:49;;;;;;;19.67;13.07;;;;;;;27.09;48.85;94584.31;5037627;28;20030;-79
2021/08/27 08:02:30;;;;;;;15.82;11.10;;;;;;;27.47;50.16;94583.75;5036585;28;20033;-78
2021/08/27 08:04:56;;;;;;;17.73;13.38;;;;;;;27.87;47.79;94580.16;5035650;28;20408;-79
2021/08/27 08:07:21;;;;;;;19.10;12.52;;;;;;;28.14;46.87;94589.94;5037473;28;20044;-78
2021/08/27 08:09:46;;;;;;;16.80;13.45;;;;;;;28.33;45.71;94570.53;5037195;28;20072;-79
2021/08/27 08:12:12;;;;;;;17.02;12.90;;;;;;;28.54;45.53;94575.53;5036862;28;20030;-78
2021/08/27 08:14:37;;;;;;;22.88;12.30;;;;;;;28.69;45.02;94583.50;5035391;28;20075;-79
2021/08/27 08:17:03;;;;;;;15.02;11.27;;;;;;;28.93;45.13;94576.31;5035045;28;20067;-79
2021/08/27 08:19:28;;;;;;;16.60;12.23;;;;;;;28.96;44.30;94572.94;5039596;28;20034;-78
2021/08/27 08:21:57;;;;;;;14.48;12.25;;;;;;;28.92;43.73;94574.78;5042476;28;20040;-78
2021/08/27 08:24:22;;;;;;;22.15;12.32;;;;;;;28.70;44.25;94563.66;5044006;28;20046;-77
2021/08/27 08:26:48;;;;;;;19.05;12.50;;;;;;;28.46;44.16;94569.25;5043987;28;20504;-78
2021/08/27 08:29:19;;;;;;;19.52;12.65;;;;;;;28.38;45.07;94572.94;5044598;28;20532;-77
2021/08/27 08:31:46;;;;;;;20.48;13.07;;;;;;;28.03;45.11;94571.00;5042196;28;20022;-77
2021/08/27 08:34:11;;;;;;;15.80;12.65;;;;;;;27.94;44.89;94566.97;5037191;23;20597;-77
2021/08/27 08:36:37;;;;;;;15.43;12.45;;;;;;;27.84;46.01;94560.28;5021704;28;20033;-77
2021/08/27 08:39:04;;;;;;;21.65;13.07;;;;;;;27.79;46.04;94558.63;5024650;28;20034;-77
2021/08/27 08:41:30;;;;;;;16.40;12.10;;;;;;;27.79;46.28;94563.97;5022177;28;20030;-77
2021/08/27 08:43:55;;;;;;;18.27;12.63;;;;;;;27.80;45.90;94560.16;5043920;23;20169;-78
2021/08/27 08:46:21;;;;;;;17.33;12.73;;;;;;;27.79;46.51;94563.19;5041591;28;20040;-77
2021/08/27 08:48:48;;;;;;;20.58;13.23;;;;;;;27.29;48.01;94569.19;5060165;28;20112;-77
2021/08/27 08:51:14;;;;;;;20.88;11.55;;;;;;;27.36;48.68;94561.38;5046383;28;20052;-77
2021/08/27 08:53:41;;;;;;;24.83;12.73;;;;;;;27.54;47.77;94565.25;5044674;28;20037;-77
2021/08/27 08:56:08;;;;;;;19.08;12.38;;;;;;;27.67;47.33;94571.31;5043302;28;20536;-77
2021/08/27 08:58:34;;;;;;;17.02;11.45;;;;;;;27.75;47.60;94568.44;5043476;28;20029;-77
2021/08/27 09:00:59;;;;;;;23.35;11.55;;;;;;;27.98;47.45;94567.81;5044773;28;20037;-78
2021/08/27 09:03:25;;;;;;;20.77;11.38;;;;;;;28.16;46.16;94560.22;5042928;28;20030;-77
2021/08/27 09:05:51;;;;;;;15.60;10.88;;;;;;;28.30;45.98;94558.63;5040536;28;20460;-77
2021/08/27 09:08:30;;;;;;;21.02;12.55;;;;;;;28.38;45.80;94563.00;5043951;28;20502;-77
2021/08/27 09:10:55;;;;;;;15.88;11.63;;;;;;;28.46;45.28;94553.22;5042461;28;20021;-77
2021/08/27 09:13:39;;;;;;;13.45;10.30;;;;;;;28.59;44.86;94556.53;5038819;28;20033;-79
2021/08/27 09:16:06;;;;;;;23.80;11.50;;;;;;;28.58;44.83;94555.75;5035924;28;20060;-79
2021/08/27 09:18:36;;;;;;;19.13;12.27;;;;;;;28.52;44.98;94546.47;5035006;28;20025;-79
2021/08/27 09:21:29;;;;;;;19.02;12.93;;;;;;;28.51;44.90;94550.28;5035037;28;20053;-77
2021/08/27 09:24:16;;;;;;;21.55;13.32;;;;;;;28.40;45.14;94544.69;5054745;28;20037;-78
2021/08/27 09:26:43;;;;;;;23.42;12.70;;;;;;;28.02;46.49;94542.72;5039488;28;20079;-78
2021/08/27 09:29:09;;;;;;;17.92;11.98;;;;;;;27.87;45.96;94554.22;5051508;28;20037;-79
2021/08/27 09:31:35;;;;;;;24.23;12.65;;;;;;;27.65;46.32;94530.78;5020680;28;20052;-77
2021/08/27 09:34:01;;;;;;;20.77;12.10;;;;;;;27.08;47.96;94534.72;5018268;28;20057;-79
2021/08/27 09:36:28;;;;;;;17.77;13.20;;;;;;;27.04;48.15;94528.53;5053583;23;20041;-79
2021/08/27 09:39:07;;;;;;;20.52;11.98;;;;;;;27.02;48.33;94538.78;5014861;28;20040;-78
2021/08/27 09:41:33;;;;;;;19.35;12.00;;;;;;;27.13;47.20;94529.13;5015719;28;20100;-79
2021/08/27 09:43:58;;;;;;;21.10;11.63;;;;;;;27.07;47.57;94527.84;4998297;28;20445;-79
2021/08/27 09:46:43;;;;;;;13.88;10.85;;;;;;;27.06;47.09;94523.63;4997622;28;20034;-79
2021/08/27 09:49:29;;;;;;;14.23;11.13;;;;;;;27.08;46.94;94529.41;5020084;28;20034;-78
2021/08/27 09:52:05;;;;;;;18.63;10.77;;;;;;;27.02;47.22;94520.09;5024147;23;20046;-78
2021/08/27 09:54:31;;;;;;;18.40;11.00;;;;;;;27.09;47.25;94509.59;5002306;28;20509;-79
2021/08/27 09:56:58;;;;;;;21.52;12.30;;;;;;;27.03;47.17;94513.66;5026410;28;20101;-78
2021/08/27 09:59:44;;;;;;;22.65;11.52;;;;;;;27.00;46.80;94500.94;5028055;28;20088;-78
2021/08/27 10:02:11;;;;;;;19.88;10.45;;;;;;;26.94;46.70;94508.44;5007961;28;20425;-79
2021/08/27 10:04:57;;;;;;;19.42;10.77;;;;;;;26.83;47.04;94508.16;5018320;28;20022;-79
2021/08/27 10:07:29;;;;;;;20.15;10.63;;;;;;;26.78;47.07;94511.06;4999399;28;20042;-79
2021/08/27 10:09:58;;;;;;;17.98;10.70;;;;;;;26.91;47.08;94507.22;5018226;28;20034;-79
2021/08/27 10:12:25;;;;;;;15.63;10.38;;;;;;;27.00;46.71;94498.25;5018046;28;20029;-78
2021/08/27 10:14:51;;;;;;;19.17;10.48;;;;;;;27.18;46.21;94500.31;5017025;28;20026;-79
2021/08/27 10:17:16;;;;;;;14.02;9.18;;;;;;;27.41;45.97;94495.13;4997803;28;20036;-79
2021/08/27 10:19:41;;;;;;;12.38;9.32;;;;;;;27.45;44.48;94495.97;5018557;28;20040;-79
2021/08/27 10:22:07;;;;;;;21.13;9.32;;;;;;;27.64;43.78;94491.84;4984492;28;20030;-79
2021/08/27 10:24:35;;;;;;;16.98;10.75;;;;;;;27.38;45.66;94497.72;5017968;28;20088;-79
2021/08/27 10:27:01;;;;;;;15.10;10.40;;;;;;;27.55;45.53;94488.56;5000344;28;20029;-79
2021/08/27 10:29:26;;;;;;;14.05;10.63;;;;;;;27.76;45.50;94473.03;5017063;28;20104;-79
2021/08/27 10:31:52;;;;;;;19.63;11.55;;;;;;;27.98;44.87;94483.06;4981952;28;20030;-79
2021/08/27 10:34:18;;;;;;;19.95;10.82;;;;;;;28.03;44.20;94472.09;5018284;28;20034;-79
2021/08/27 10:36:45;;;;;;;15.30;9.55;;;;;;;28.07;43.47;94472.94;5000436;28;20038;-79
2021/08/27 10:39:11;;;;;;;20.83;11.40;;;;;;;27.54;45.08;94481.69;5018724;28;20061;-79
2021/08/27 10:41:39;;;;;;;20.25;11.05;;;;;;;27.23;44.83;94477.91;5017612;28;20465;-78
2021/08/27 10:44:11;;;;;;;20.25;10.63;;;;;;;27.14;45.11;94475.41;5000591;28;20125;-79
2021/08/27 10:46:48;;;;;;;16.02;11.05;;;;;;;27.22;44.99;94481.72;4997562;28;20030;-78
2021/08/27 10:49:14;;;;;;;16.92;11.00;;;;;;;27.43;45.61;94466.19;5014604;28;20034;-79
2021/08/27 10:51:41;;;;;;;18.85;9.82;;;;;;;27.66;45.06;94457.53;5012863;28;20041;-79
2021/08/27 10:54:07;;;;;;;18.15;9.02;;;;;;;27.68;43.05;94460.66;4996910;28;20037;-79
2021/08/27 10:56:46;;;;;;;16.55;9.93;;;;;;;27.72;43.03;94461.50;4997073;28;20033;-78
2021/08/27 10:59:13;;;;;;;18.20;9.93;;;;;;;27.79;43.21;94469.66;5013471;28;20045;-78
2021/08/27 11:01:43;;;;;;;19.25;9.35;;;;;;;27.97;41.63;94457.44;4981035;28;20567;-78
2021/08/27 11:04:24;;;;;;;21.75;8.93;;;;;;;28.10;41.31;94455.44;4996848;28;20521;-78
2021/08/27 11:06:57;;;;;;;13.38;9.07;;;;;;;28.07;41.20;94458.81;5013184;28;20037;-78
2021/08/27 11:09:27;;;;;;;13.60;8.20;;;;;;;28.05;40.33;94459.16;4995573;28;20192;-78
2021/08/27 11:12:13;;;;;;;13.23;8.68;;;;;;;28.04;40.60;94459.50;4996871;28;20498;-78
2021/08/27 11:14:43;;;;;;;19.42;8.43;;;;;;;28.23;41.11;94466.75;5016204;28;20514;-78
2021/08/27 11:17:09;;;;;;;16.92;8.13;;;;;;;28.34;40.54;94465.13;5021675;28;20060;-78
2021/08/27 11:19:41;;;;;;;14.82;7.93;;;;;;;28.53;40.66;94467.75;5002341;28;20053;-77
2021/08/27 11:22:09;;;;;;;11.40;7.95;;;;;;;28.77;40.43;94465.88;5020882;28;20030;-77
2021/08/27 11:24:35;;;;;;;18.45;8.70;;;;;;;28.92;38.71;94460.47;5020379;28;20454;-77
2021/08/27 11:27:16;;;;;;;14.75;7.38;;;;;;;28.98;38.14;94458.28;5017079;28;20516;-78
2021/08/27 11:29:42;;;;;;;23.65;7.75;;;;;;;28.88;38.01;94453.50;5013457;28;20037;-78